Time;durP1;ratioP1;P1;durP2;ratioP2;P2;SDS_P1;SDS_P2;PMS_P1;PMS_P2;Temp;Humidity;BMP_temperature;BMP_pressure;BME280_temperature;BME280_humidity;BME280_pressure;Samples;Min_cycle;Max_cycle;Signal;HPM_P1;HPM_P2
2021/12/18 00:00:57;;;;;;;4.08;2.42;;;;;;;9.26;96.85;99647.97;1717589;83;21069;-66
2021/12/18 00:03:23;;;;;;;5.78;3.50;;;;;;;9.50;94.52;99646.22;1717926;81;21011;-70
2021/12/18 00:05:51;;;;;;;5.30;3.10;;;;;;;9.61;93.13;99645.39;1706141;82;21085;-66
2021/12/18 00:08:17;;;;;;;5.00;2.87;;;;;;;9.63;92.51;99651.22;1708293;83;21492;-67
2021/12/18 00:10:45;;;;;;;4.60;2.70;;;;;;;9.38;93.71;99650.34;1707972;83;21100;-67
2021/12/18 00:13:13;;;;;;;5.67;2.98;;;;;;;9.40;93.81;99653.58;1707367;83;21051;-70
2021/12/18 00:15:40;;;;;;;3.87;2.37;;;;;;;9.44;93.27;99654.80;1709159;82;21050;-66
2021/12/18 00:18:06;;;;;;;5.28;2.77;;;;;;;9.40;93.09;99654.08;1708721;82;21074;-67
2021/12/18 00:20:37;;;;;;;4.95;2.47;;;;;;;9.63;91.90;99656.42;1708156;83;21004;-66
2021/12/18 00:23:04;;;;;;;4.45;2.42;;;;;;;9.68;89.41;99652.73;1708436;82;21154;-68
2021/12/18 00:25:31;;;;;;;4.55;2.90;;;;;;;9.75;88.00;99654.88;1708290;82;21006;-69
2021/12/18 00:27:58;;;;;;;6.33;3.30;;;;;;;8.88;95.12;99650.86;1708099;83;22377;-66
2021/12/18 00:30:26;;;;;;;4.00;2.02;;;;;;;8.73;100.00;99650.13;1707574;83;20971;-66
2021/12/18 00:32:53;;;;;;;5.10;2.75;;;;;;;8.46;100.00;99652.45;1708907;82;20971;-68
2021/12/18 00:35:19;;;;;;;6.40;2.83;;;;;;;8.26;100.00;99645.73;1708046;82;21146;-67
2021/12/18 00:37:46;;;;;;;4.65;2.58;;;;;;;8.36;100.00;99653.20;1678707;85;21004;-70
2021/12/18 00:40:19;;;;;;;4.40;2.20;;;;;;;8.18;100.00;99660.59;1708114;83;21017;-66
2021/12/18 00:42:51;;;;;;;5.53;3.20;;;;;;;8.42;100.00;99658.21;1713251;82;21109;-67
2021/12/18 00:45:18;;;;;;;4.90;2.75;;;;;;;8.53;100.00;99662.43;1675735;84;21090;-67
2021/12/18 00:47:46;;;;;;;5.45;2.85;;;;;;;8.43;100.00;99674.09;1686080;84;21623;-69
2021/12/18 00:50:17;;;;;;;5.97;2.98;;;;;;;8.66;100.00;99666.95;1707336;82;21089;-67
2021/12/18 00:52:43;;;;;;;4.62;2.55;;;;;;;8.66;100.00;99669.54;1715344;83;20939;-68
2021/12/18 00:55:10;;;;;;;4.90;2.65;;;;;;;8.85;100.00;99667.33;1677176;85;21631;-69
2021/12/18 00:57:37;;;;;;;4.35;2.30;;;;;;;8.58;100.00;99670.97;1715417;83;21352;-69
2021/12/18 01:00:11;;;;;;;4.47;2.40;;;;;;;8.67;100.00;99672.94;1676729;85;21209;-68
2021/12/18 01:02:42;;;;;;;3.90;2.27;;;;;;;8.93;100.00;99669.29;1715106;83;21035;-67
2021/12/18 01:05:08;;;;;;;8.10;4.03;;;;;;;8.72;100.00;99673.21;1703321;83;21039;-71
2021/12/18 01:07:34;;;;;;;6.90;2.92;;;;;;;9.11;100.00;99670.66;1704525;82;21058;-67
2021/12/18 01:12:50;;;;;;;5.35;2.67;;;;;;;9.10;100.00;99677.66;1703076;84;21161;-70
2021/12/18 01:15:26;;;;;;;3.90;2.02;;;;;;;9.01;100.00;99674.86;1704333;82;21007;-66
2021/12/18 01:23:15;;;;;;;4.53;2.37;;;;;;;8.30;100.00;99681.22;1703803;84;21036;-66
2021/12/18 01:25:42;;;;;;;4.33;2.30;;;;;;;8.37;100.00;99683.44;1703598;82;21155;-68
2021/12/18 01:28:09;;;;;;;3.95;2.05;;;;;;;8.64;100.00;99685.83;1703118;84;20952;-68
2021/12/18 01:30:36;;;;;;;4.20;2.00;;;;;;;8.70;100.00;99686.37;1703981;82;21014;-67
2021/12/18 01:33:03;;;;;;;6.00;2.98;;;;;;;8.95;100.00;99682.92;1703529;84;21016;-67
2021/12/18 01:35:30;;;;;;;4.45;2.50;;;;;;;8.50;100.00;99684.07;1703281;84;21016;-66
2021/12/18 01:37:57;;;;;;;4.17;2.05;;;;;;;8.45;100.00;99683.83;1702938;84;23202;-69
2021/12/18 01:40:24;;;;;;;3.60;1.90;;;;;;;8.40;100.00;99685.64;1704297;82;21010;-66
2021/12/18 01:45:28;;;;;;;4.05;2.02;;;;;;;8.39;100.00;99687.94;1703545;84;21001;-67
2021/12/18 01:53:20;;;;;;;4.45;2.47;;;;;;;8.26;100.00;99679.98;1703863;84;20900;-66
2021/12/18 01:55:49;;;;;;;3.75;1.95;;;;;;;7.79;100.00;99685.05;1700733;84;20952;-68
2021/12/18 01:58:22;;;;;;;3.87;2.02;;;;;;;7.56;100.00;99691.62;1703563;84;21073;-66
2021/12/18 02:00:50;;;;;;;4.20;1.75;;;;;;;7.46;100.00;99691.89;1703463;83;21678;-66
2021/12/18 02:03:17;;;;;;;4.60;2.15;;;;;;;7.78;100.00;99692.53;1703580;84;21137;-70
2021/12/18 02:05:44;;;;;;;4.03;1.80;;;;;;;7.34;100.00;99683.40;1702968;83;20923;-67
2021/12/18 02:08:11;;;;;;;4.70;2.10;;;;;;;7.36;100.00;99682.74;1663727;84;21185;-65
2021/12/18 02:10:47;;;;;;;2.98;1.60;;;;;;;7.34;100.00;99682.09;1691532;84;21479;-66
2021/12/18 02:21:36;;;;;;;4.60;2.45;;;;;;;7.38;100.00;99688.05;1690559;84;22429;-66
2021/12/18 02:24:03;;;;;;;;;;;;;;;7.42;100.00;99689.30;1694391;84;20967;-66
2021/12/18 02:26:30;;;;;;;3.98;2.27;;;;;;;7.36;100.00;99693.11;1691775;84;20127;-71
2021/12/18 02:28:59;;;;;;;6.40;2.37;;;;;;;7.32;100.00;99691.36;1690690;84;21178;-66
2021/12/18 02:31:26;;;;;;;5.95;2.70;;;;;;;7.37;100.00;99693.42;1706212;83;21041;-66
2021/12/18 02:33:53;;;;;;;5.28;2.70;;;;;;;7.64;100.00;99698.52;1686200;85;21130;-67
2021/12/18 02:36:26;;;;;;;5.72;3.20;;;;;;;8.13;100.00;99692.78;1706463;84;21003;-71
2021/12/18 02:41:39;;;;;;;3.70;1.75;;;;;;;7.87;100.00;99697.94;1705765;84;21654;-65
2021/12/18 02:44:08;;;;;;;3.17;1.75;;;;;;;7.78;100.00;99710.20;1683121;85;21671;-69
2021/12/18 02:46:37;;;;;;;3.42;1.87;;;;;;;7.78;100.00;99706.31;1706085;83;21023;-68
2021/12/18 02:49:18;;;;;;;3.87;2.05;;;;;;;7.76;100.00;99708.75;1685928;85;21516;-66
2021/12/18 02:51:44;;;;;;;4.00;1.60;;;;;;;7.95;100.00;99714.71;1705393;84;21014;-66
2021/12/18 02:54:10;;;;;;;3.17;1.75;;;;;;;7.87;100.00;99717.89;1685517;85;21182;-66
2021/12/18 02:56:37;;;;;;;3.20;1.65;;;;;;;8.21;100.00;99718.64;1705962;84;21043;-66
2021/12/18 02:59:07;;;;;;;3.50;1.80;;;;;;;8.27;100.00;99720.03;1685907;85;20964;-66
2021/12/18 03:01:35;;;;;;;3.30;1.57;;;;;;;8.00;100.00;99725.88;1705895;84;21109;-66
2021/12/18 03:04:12;;;;;;;3.37;2.30;;;;;;;8.03;100.00;99726.33;1685685;84;21577;-66
2021/12/18 03:06:36;;;;;;;4.62;2.37;;;;;;;8.29;100.00;99734.13;1707445;83;21349;-67
2021/12/18 03:25:03;;;;;;;3.60;2.00;;;;;;;8.23;100.00;99751.73;1715513;81;20935;-66
2021/12/18 03:27:27;;;;;;;3.70;2.40;;;;;;;8.67;100.00;99746.99;1676669;85;21048;-66
2021/12/18 03:29:55;;;;;;;4.33;2.25;;;;;;;8.85;100.00;99753.09;1716388;81;21003;-66
2021/12/18 03:32:26;;;;;;;3.87;2.08;;;;;;;8.78;100.00;99753.02;1678072;85;21117;-66
2021/12/18 03:34:53;;;;;;;3.80;2.52;;;;;;;8.73;100.00;99760.56;1715945;81;21021;-71
2021/12/18 03:37:19;;;;;;;3.90;2.05;;;;;;;8.97;100.00;99760.70;1674923;85;21584;-66
2021/12/18 03:39:46;;;;;;;3.95;2.25;;;;;;;9.09;100.00;99759.72;1696354;82;21091;-67
2021/12/18 03:42:12;;;;;;;3.20;1.80;;;;;;;8.97;100.00;99764.11;1687998;84;20972;-65
2021/12/18 03:44:39;;;;;;;3.08;2.00;;;;;;;9.09;100.00;99763.63;1708270;82;21088;-67
2021/12/18 03:47:09;;;;;;;3.77;2.30;;;;;;;8.94;100.00;99767.56;1715028;83;21614;-68
2021/12/18 03:49:36;;;;;;;4.20;2.67;;;;;;;8.90;100.00;99772.83;1678283;85;21078;-66
2021/12/18 03:52:03;;;;;;;3.37;2.00;;;;;;;8.25;100.00;99773.92;1715823;83;20911;-67
2021/12/18 03:54:30;;;;;;;3.58;2.27;;;;;;;8.30;100.00;99781.20;1678195;85;21008;-70
2021/12/18 03:56:57;;;;;;;3.45;2.10;;;;;;;8.15;100.00;99785.59;1715874;81;21171;-70
2021/12/18 03:59:24;;;;;;;3.42;2.10;;;;;;;8.24;100.00;99787.09;1677579;85;21071;-66
2021/12/18 04:01:50;;;;;;;3.60;2.15;;;;;;;8.33;100.00;99786.01;1726140;78;21124;-67
2021/12/18 04:04:18;;;;;;;3.87;2.37;;;;;;;8.27;100.00;99787.55;1720730;81;21031;-66
2021/12/18 04:06:44;;;;;;;4.12;2.55;;;;;;;8.31;100.00;99785.40;1720861;81;21086;-66
2021/12/18 04:09:12;;;;;;;4.25;2.77;;;;;;;8.43;100.00;99789.17;1719081;82;21078;-69
2021/12/18 04:11:40;;;;;;;4.65;2.95;;;;;;;8.46;100.00;99790.13;1721212;81;21322;-66
2021/12/18 04:14:09;;;;;;;4.53;2.50;;;;;;;8.08;100.00;99789.88;1721339;81;21052;-66
2021/12/18 04:16:36;;;;;;;3.85;2.42;;;;;;;8.03;100.00;99797.70;1721261;81;21042;-66
2021/12/18 04:19:04;;;;;;;3.72;2.35;;;;;;;8.11;100.00;99798.11;1717702;81;21014;-67
2021/12/18 04:21:32;;;;;;;4.22;2.60;;;;;;;8.34;100.00;99807.62;1721242;81;21164;-70
2021/12/18 04:23:59;;;;;;;4.92;2.70;;;;;;;8.59;100.00;99806.86;1721063;81;21049;-68
2021/12/18 04:26:26;;;;;;;4.00;2.52;;;;;;;8.64;100.00;99804.54;1719112;81;21093;-66
2021/12/18 04:28:53;;;;;;;4.42;3.20;;;;;;;8.68;100.00;99796.19;1725006;81;21070;-66
2021/12/18 04:31:20;;;;;;;4.22;2.92;;;;;;;8.84;100.00;99796.97;1721389;81;21049;-67
2021/12/18 04:33:46;;;;;;;5.10;2.85;;;;;;;8.95;100.00;99805.09;1720495;81;21165;-67
2021/12/18 04:36:13;;;;;;;4.85;3.00;;;;;;;8.75;100.00;99809.24;1720771;81;21380;-67
2021/12/18 04:38:39;;;;;;;4.70;3.20;;;;;;;9.10;100.00;99814.66;1721473;81;22275;-67
2021/12/18 04:41:09;;;;;;;5.10;3.08;;;;;;;9.30;100.00;99819.55;1720193;81;20983;-66
2021/12/18 04:43:34;;;;;;;6.40;3.58;;;;;;;9.33;99.74;99817.89;1721342;81;21543;-71
2021/12/18 04:46:01;;;;;;;4.87;3.22;;;;;;;9.57;95.76;99821.09;1719494;81;21135;-67
2021/12/18 04:48:27;;;;;;;4.92;3.08;;;;;;;9.86;91.34;99824.84;1721363;81;21164;-68
2021/12/18 04:50:54;;;;;;;4.47;2.95;;;;;;;9.21;96.36;99824.58;1720343;81;21022;-68
2021/12/18 04:53:21;;;;;;;4.75;3.02;;;;;;;9.35;98.11;99826.30;1723093;81;21145;-67
2021/12/18 04:55:47;;;;;;;4.67;2.98;;;;;;;9.22;97.37;99826.98;1721041;81;20970;-71
2021/12/18 04:58:14;;;;;;;5.15;3.35;;;;;;;9.17;99.27;99824.63;1720605;81;21140;-67
2021/12/18 05:00:46;;;;;;;4.58;3.05;;;;;;;9.17;98.00;99824.13;1720360;81;20985;-67
2021/12/18 05:03:12;;;;;;;5.58;3.90;;;;;;;9.13;98.15;99820.77;1715391;81;22305;-67
2021/12/18 05:05:37;;;;;;;4.25;3.12;;;;;;;8.90;100.00;99824.34;1716204;81;20876;-68
2021/12/18 05:08:04;;;;;;;5.37;3.35;;;;;;;9.26;98.18;99822.22;1715829;81;21114;-67
2021/12/18 05:10:31;;;;;;;5.22;3.40;;;;;;;9.25;97.30;99827.11;1716167;81;22163;-72
2021/12/18 05:13:01;;;;;;;4.83;3.20;;;;;;;9.31;95.48;99830.26;1715039;81;21676;-68
2021/12/18 05:15:27;;;;;;;5.40;3.65;;;;;;;9.00;98.92;99837.83;1716437;81;21090;-69
2021/12/18 05:17:56;;;;;;;5.53;3.50;;;;;;;9.03;98.09;99845.77;1714659;81;20998;-69
2021/12/18 05:20:25;;;;;;;6.35;4.22;;;;;;;9.29;96.33;99847.06;1715595;81;21109;-70
2021/12/18 05:22:51;;;;;;;5.60;4.20;;;;;;;9.39;94.90;99850.94;1715899;81;21165;-68
2021/12/18 05:25:19;;;;;;;6.87;5.33;;;;;;;9.45;91.92;99854.12;1716015;81;20953;-69
2021/12/18 05:27:45;;;;;;;5.75;4.28;;;;;;;9.42;92.24;99853.18;1716009;81;20990;-70
2021/12/18 05:30:12;;;;;;;6.90;4.65;;;;;;;10.05;85.63;99855.13;1715572;81;21470;-67
2021/12/18 05:32:40;;;;;;;6.20;4.40;;;;;;;10.01;83.61;99859.11;1715990;81;22835;-67
2021/12/18 05:35:08;;;;;;;5.15;3.35;;;;;;;9.86;84.67;99858.69;1715290;80;21158;-67
2021/12/18 05:37:53;;;;;;;6.33;4.28;;;;;;;10.02;84.26;99860.72;1714963;81;20974;-67
2021/12/18 05:40:25;;;;;;;6.28;4.55;;;;;;;10.32;81.56;99869.17;1714115;81;21532;-71
2021/12/18 05:42:54;;;;;;;5.45;3.65;;;;;;;10.23;79.10;99870.59;1705834;82;20958;-67
2021/12/18 05:45:21;;;;;;;5.62;4.05;;;;;;;10.03;80.99;99870.13;1708060;82;21068;-68
2021/12/18 05:47:47;;;;;;;6.30;4.67;;;;;;;10.22;80.09;99869.47;1708580;82;21172;-67
2021/12/18 05:50:17;;;;;;;6.72;4.60;;;;;;;10.16;79.91;99870.24;1707050;82;20962;-67
2021/12/18 05:52:45;;;;;;;7.30;5.72;;;;;;;9.93;83.12;99877.78;1711251;82;21128;-66
2021/12/18 05:55:28;;;;;;;10.80;7.33;;;;;;;10.28;79.21;99875.77;1708288;82;20990;-67
2021/12/18 05:57:43;;;;;;;21.85;12.15;;;;;;;10.24;78.03;99885.73;1705508;82;21018;-66
2021/12/18 06:00:11;;;;;;;35.13;16.12;;;;;;;10.22;78.24;99885.89;1701555;82;21093;-68
2021/12/18 06:02:38;;;;;;;18.25;9.53;;;;;;;10.07;80.60;99886.48;1711621;82;22212;-68
2021/12/18 06:05:07;;;;;;;14.65;8.35;;;;;;;9.91;83.41;99890.67;1708802;82;21086;-69
2021/12/18 06:10:23;;;;;;;13.55;9.50;;;;;;;10.22;79.90;99895.52;1707868;82;21113;-69
2021/12/18 06:12:49;;;;;;;12.37;8.68;;;;;;;10.30;79.35;99898.00;1693602;83;22035;-69
2021/12/18 06:15:18;;;;;;;13.20;9.33;;;;;;;10.43;78.02;99901.22;1708730;82;20943;-70
2021/12/18 06:17:45;;;;;;;10.28;7.65;;;;;;;10.09;81.90;99896.73;1707609;82;21467;-67
2021/12/18 06:20:12;;;;;;;12.37;7.97;;;;;;;10.28;80.68;99894.00;1707577;82;20955;-72
2021/12/18 06:22:38;;;;;;;16.73;10.75;;;;;;;10.36;79.15;99901.66;1708876;82;21111;-69
2021/12/18 06:25:09;;;;;;;16.87;11.10;;;;;;;10.03;82.73;99906.58;1708187;82;22276;-70
2021/12/18 06:27:36;;;;;;;12.80;8.50;;;;;;;9.80;85.31;99912.80;1708862;82;20900;-69
2021/12/18 06:30:04;;;;;;;11.25;7.92;;;;;;;10.33;80.60;99902.84;1708512;82;21031;-70
2021/12/18 06:32:32;;;;;;;11.85;7.90;;;;;;;10.29;79.18;99909.92;1708291;82;21090;-67
2021/12/18 06:35:01;;;;;;;16.20;11.35;;;;;;;10.28;78.47;99909.13;1708642;82;21019;-68
2021/12/18 06:37:29;;;;;;;12.35;9.08;;;;;;;10.40;77.86;99914.11;1708169;82;21409;-68
2021/12/18 06:39:56;;;;;;;14.63;9.70;;;;;;;9.77;84.23;99914.46;1712373;82;21125;-68
2021/12/18 06:42:23;;;;;;;9.75;6.60;;;;;;;10.18;81.53;99913.31;1708272;82;21059;-68
2021/12/18 06:44:52;;;;;;;14.20;9.88;;;;;;;10.61;78.68;99911.95;1708101;82;21168;-66
2021/12/18 06:47:17;;;;;;;11.60;8.65;;;;;;;10.41;78.15;99917.02;1694156;83;21602;-65
2021/12/18 06:49:44;;;;;;;11.78;8.55;;;;;;;10.71;76.38;99916.81;1695010;83;21130;-66
2021/12/18 06:52:10;;;;;;;23.52;14.35;;;;;;;10.64;75.26;99917.27;1708092;82;20932;-70
2021/12/18 06:54:37;;;;;;;13.80;9.35;;;;;;;10.19;79.31;99922.77;1708089;82;20951;-66
2021/12/18 06:57:04;;;;;;;15.43;10.95;;;;;;;9.85;84.13;99925.25;1708162;82;21169;-70
2021/12/18 06:59:31;;;;;;;10.95;7.40;;;;;;;10.28;79.34;99923.95;1708632;82;20989;-67
2021/12/18 07:01:58;;;;;;;10.53;8.13;;;;;;;10.25;77.27;99934.25;1706904;81;21548;-65
2021/12/18 07:04:25;;;;;;;9.40;7.03;;;;;;;10.27;78.35;99929.66;1703669;81;21168;-69
2021/12/18 07:06:52;;;;;;;13.60;10.30;;;;;;;9.92;80.93;99932.13;1703812;81;21864;-65
2021/12/18 07:09:23;;;;;;;11.75;8.75;;;;;;;10.53;76.66;99929.05;1703501;81;21513;-67
2021/12/18 07:11:51;;;;;;;8.50;6.08;;;;;;;10.65;71.87;99931.43;1703951;82;21132;-65
2021/12/18 07:14:18;;;;;;;14.78;10.45;;;;;;;10.89;70.09;99943.19;1709222;82;21163;-70
2021/12/18 07:16:44;;;;;;;16.32;10.82;;;;;;;10.99;67.88;99945.46;1706562;82;21559;-63
2021/12/18 07:19:11;;;;;;;13.22;9.00;;;;;;;11.00;66.30;99956.19;1708574;82;21153;-73
2021/12/18 07:21:37;;;;;;;11.90;7.95;;;;;;;10.91;66.40;99960.77;1706491;82;21148;-64
2021/12/18 07:24:08;;;;;;;11.48;7.47;;;;;;;11.12;65.56;99957.75;1703792;82;20986;-69
2021/12/18 07:26:35;;;;;;;9.33;6.10;;;;;;;10.93;65.05;99957.45;1706342;82;21152;-73
2021/12/18 07:29:03;;;;;;;9.73;6.70;;;;;;;10.70;65.57;99956.92;1703230;82;21630;-74
2021/12/18 07:31:33;;;;;;;8.63;5.37;;;;;;;10.86;65.38;99960.52;1684630;83;21619;-70
2021/12/18 07:33:59;;;;;;;8.50;5.45;;;;;;;11.23;63.37;99966.33;1701616;81;21607;-69
2021/12/18 07:36:26;;;;;;;9.18;6.08;;;;;;;11.01;64.52;99972.14;1704526;81;21093;-72
2021/12/18 07:38:52;;;;;;;8.85;5.92;;;;;;;11.05;64.93;99977.78;1702331;81;21185;-74
2021/12/18 07:41:19;;;;;;;9.18;6.12;;;;;;;10.92;65.35;99980.63;1702687;81;22446;-68
2021/12/18 07:43:46;;;;;;;11.28;7.30;;;;;;;10.97;64.66;99987.86;1699008;82;21069;-65
2021/12/18 07:46:13;;;;;;;8.55;5.60;;;;;;;10.85;64.78;99994.12;1704671;81;21961;-70
2021/12/18 07:48:42;;;;;;;11.97;7.62;;;;;;;10.51;69.46;100004.00;1704237;82;21094;-67
2021/12/18 07:51:07;;;;;;;12.35;7.80;;;;;;;10.51;69.21;100011.82;1701900;82;22802;-64
2021/12/18 07:53:35;;;;;;;8.78;5.80;;;;;;;10.76;67.79;100003.56;1703438;82;22274;-69
2021/12/18 07:56:03;;;;;;;9.93;5.55;;;;;;;10.92;65.40;99998.88;1707215;82;21040;-71
2021/12/18 07:58:33;;;;;;;11.35;6.83;;;;;;;11.07;65.28;100000.58;1705693;82;20997;-66
2021/12/18 08:01:02;;;;;;;14.78;8.58;;;;;;;10.79;65.17;100000.08;1703038;82;21091;-78
2021/12/18 08:03:28;;;;;;;14.63;8.75;;;;;;;10.93;66.16;99989.25;1697970;82;22239;-65
2021/12/18 08:05:57;;;;;;;14.07;7.22;;;;;;;11.14;63.45;99997.00;1706449;82;20979;-68
2021/12/18 08:08:23;;;;;;;10.85;6.30;;;;;;;11.20;62.53;99996.22;1708163;82;20967;-66
2021/12/18 08:10:49;;;;;;;10.53;6.37;;;;;;;11.26;63.51;99997.77;1707388;82;21019;-77
2021/12/18 08:13:17;;;;;;;34.30;18.37;;;;;;;10.87;64.08;99992.14;1707703;82;21489;-66
2021/12/18 08:15:43;;;;;;;23.87;14.90;;;;;;;10.87;62.95;99992.14;1705153;82;21135;-69
2021/12/18 08:18:10;;;;;;;20.55;11.43;;;;;;;11.09;62.38;99990.23;1707168;82;21151;-70
2021/12/18 08:20:36;;;;;;;10.98;6.95;;;;;;;10.80;63.10;99985.27;1709091;82;21584;-67
2021/12/18 08:23:03;;;;;;;7.95;5.47;;;;;;;10.36;66.07;99988.45;1708237;82;21047;-69
2021/12/18 08:25:30;;;;;;;7.15;5.28;;;;;;;10.44;66.68;99987.50;1708210;82;21098;-69
2021/12/18 08:28:01;;;;;;;8.75;5.42;;;;;;;11.08;63.46;99982.11;1708596;82;22213;-67
2021/12/18 08:30:28;;;;;;;9.70;5.50;;;;;;;11.18;61.47;99981.77;1707695;82;21027;-76
2021/12/18 08:32:56;;;;;;;8.98;5.87;;;;;;;11.32;60.22;99988.64;1706902;82;20997;-67
2021/12/18 08:35:25;;;;;;;10.25;6.37;;;;;;;11.60;58.05;99985.16;1706985;82;21089;-66
2021/12/18 08:37:52;;;;;;;11.18;6.60;;;;;;;11.27;58.36;99979.30;1707645;82;21090;-63
2021/12/18 08:40:19;;;;;;;10.78;7.20;;;;;;;11.15;59.76;99975.63;1708044;82;21070;-75
2021/12/18 08:42:46;;;;;;;13.32;7.78;;;;;;;11.66;58.34;99975.21;1692262;82;20983;-69
2021/12/18 08:45:14;;;;;;;12.50;7.62;;;;;;;11.42;57.62;99989.09;1707642;82;21014;-64
2021/12/18 08:47:41;;;;;;;15.63;8.48;;;;;;;11.03;59.75;99988.41;1705864;81;21097;-65
2021/12/18 08:50:13;;;;;;;13.80;8.63;;;;;;;10.82;60.39;99984.06;1708110;82;21864;-64
2021/12/18 08:52:40;;;;;;;16.17;9.70;;;;;;;11.02;61.08;99978.95;1707649;82;21116;-63
2021/12/18 08:55:08;;;;;;;13.55;7.92;;;;;;;11.30;58.77;99977.61;1707511;82;21046;-64
2021/12/18 08:57:34;;;;;;;10.55;7.17;;;;;;;10.99;60.13;99979.88;1707775;82;20987;-68
2021/12/18 09:00:00;;;;;;;8.63;6.37;;;;;;;11.02;60.66;99987.28;1707125;82;21173;-63
2021/12/18 09:02:27;;;;;;;9.73;6.90;;;;;;;11.14;59.25;99987.88;1706648;82;21014;-67
2021/12/18 09:04:53;;;;;;;16.73;10.03;;;;;;;11.57;57.75;99988.14;1707636;82;21508;-64
2021/12/18 09:07:20;;;;;;;19.37;12.23;;;;;;;11.91;56.24;99987.27;1705958;82;21031;-75
2021/12/18 09:09:48;;;;;;;16.93;12.30;;;;;;;11.96;56.13;99984.05;1693918;82;21437;-64
2021/12/18 09:12:15;;;;;;;13.58;10.20;;;;;;;12.00;55.99;99991.79;1695233;82;21574;-69
2021/12/18 09:14:43;;;;;;;11.60;8.50;;;;;;;11.91;55.78;99996.41;1696401;82;21033;-64
2021/12/18 09:17:10;;;;;;;12.43;9.23;;;;;;;11.74;55.84;99997.22;1709731;82;21209;-64
2021/12/18 09:19:36;;;;;;;13.08;8.58;;;;;;;11.45;56.56;99997.84;1705531;82;21003;-73
2021/12/18 09:22:06;;;;;;;14.00;8.50;;;;;;;11.55;56.32;99992.23;1706914;82;20960;-67
2021/12/18 09:24:32;;;;;;;12.55;7.80;;;;;;;11.68;55.98;99996.22;1705118;82;20959;-77
2021/12/18 09:26:59;;;;;;;15.30;10.03;;;;;;;11.43;56.96;100001.64;1707682;82;20955;-66
2021/12/18 09:29:26;;;;;;;14.80;10.82;;;;;;;11.58;56.06;99998.88;1709867;82;21154;-65
2021/12/18 09:31:54;;;;;;;13.48;10.03;;;;;;;11.65;55.53;99990.58;1708898;82;21095;-67
2021/12/18 09:34:22;;;;;;;13.85;10.15;;;;;;;11.29;57.08;99990.36;1708226;82;21130;-65
2021/12/18 09:36:48;;;;;;;12.18;8.90;;;;;;;11.77;56.57;99996.03;1698972;82;22196;-77
2021/12/18 09:39:18;;;;;;;15.25;9.88;;;;;;;12.25;55.26;99992.83;1702408;82;21029;-67
2021/12/18 09:41:49;;;;;;;12.98;8.53;;;;;;;12.55;53.97;99985.91;1707212;82;22183;-75
2021/12/18 09:44:28;;;;;;;13.73;8.73;;;;;;;12.84;53.16;99976.79;1702052;82;21097;-64
2021/12/18 09:46:55;;;;;;;11.70;7.78;;;;;;;12.99;52.62;99977.87;1700946;82;21073;-63
2021/12/18 09:49:22;;;;;;;13.68;8.63;;;;;;;12.75;52.32;99974.91;1702015;82;21158;-64
2021/12/18 09:51:49;;;;;;;12.23;8.05;;;;;;;12.75;52.33;99969.67;1702191;82;20942;-69
2021/12/18 09:54:16;;;;;;;13.43;8.73;;;;;;;12.69;51.95;99972.29;1707726;82;21196;-77
2021/12/18 09:56:43;;;;;;;12.93;8.27;;;;;;;12.63;51.56;99960.84;1707977;82;21497;-66
2021/12/18 09:59:12;;;;;;;13.20;7.93;;;;;;;12.61;51.79;99980.67;1708430;82;21310;-65
2021/12/18 10:01:38;;;;;;;14.05;9.25;;;;;;;12.65;51.66;99977.95;1708593;82;21261;-70
2021/12/18 10:04:06;;;;;;;22.83;12.97;;;;;;;12.72;51.35;99974.00;1708126;82;20979;-78
2021/12/18 10:06:43;;;;;;;17.17;10.35;;;;;;;12.54;51.27;99979.05;1677429;82;21336;-77
2021/12/18 10:09:28;;;;;;;16.57;10.45;;;;;;;12.84;50.46;99975.00;1708304;82;20995;-63
2021/12/18 10:12:00;;;;;;;16.95;11.30;;;;;;;12.55;50.10;99985.91;1707788;82;20912;-76
2021/12/18 10:14:42;;;;;;;17.37;10.08;;;;;;;12.27;51.05;99985.58;1708002;82;21172;-66
2021/12/18 10:17:31;;;;;;;14.73;8.70;;;;;;;12.30;50.81;99993.02;1708612;82;21007;-67
2021/12/18 10:20:17;;;;;;;12.13;7.75;;;;;;;12.29;50.94;99995.85;1707261;82;21705;-65
2021/12/18 10:22:53;;;;;;;15.28;9.83;;;;;;;11.71;52.00;99998.14;1708140;82;21011;-66
2021/12/18 10:25:27;;;;;;;15.60;9.53;;;;;;;11.89;51.96;99996.61;1707251;82;21018;-74
2021/12/18 10:28:14;;;;;;;13.35;8.08;;;;;;;11.66;52.48;100002.63;1694155;83;21089;-64
2021/12/18 10:30:51;;;;;;;11.70;7.30;;;;;;;11.29;53.26;100002.09;1708219;82;21057;-66
2021/12/18 10:33:20;;;;;;;12.13;8.55;;;;;;;11.48;53.51;99998.44;1708564;82;21140;-66
2021/12/18 10:35:55;;;;;;;15.38;9.30;;;;;;;11.86;52.66;100000.13;1708203;82;21003;-66
2021/12/18 10:38:51;;;;;;;11.57;7.62;;;;;;;11.58;52.49;99995.77;1708877;82;21035;-66
2021/12/18 10:41:29;;;;;;;11.93;7.60;;;;;;;11.67;52.39;99997.73;1707635;82;21035;-66
2021/12/18 10:44:08;;;;;;;11.78;7.60;;;;;;;11.31;52.44;99996.67;1707784;82;20995;-76
2021/12/18 10:46:44;;;;;;;13.08;8.38;;;;;;;11.23;53.02;100001.55;1709244;82;21884;-64
2021/12/18 10:49:13;;;;;;;11.45;7.03;;;;;;;11.01;53.69;100003.94;1708834;82;21030;-65
2021/12/18 10:51:42;;;;;;;12.00;6.72;;;;;;;10.81;53.91;100002.02;1708629;82;21118;-68
2021/12/18 10:54:18;;;;;;;10.25;6.05;;;;;;;10.68;54.63;99999.30;1709100;82;20987;-67
2021/12/18 10:56:51;;;;;;;11.08;7.72;;;;;;;10.80;54.57;100004.83;1709006;82;21033;-69
2021/12/18 10:59:31;;;;;;;11.85;8.23;;;;;;;10.82;54.95;100003.63;1707771;82;21124;-75
2021/12/18 11:01:59;;;;;;;12.95;7.00;;;;;;;10.62;55.58;100007.90;1709141;82;21555;-64
2021/12/18 11:04:28;;;;;;;35.95;20.52;;;;;;;10.80;55.67;100010.84;1713781;81;21089;-65
2021/12/18 11:06:55;;;;;;;14.30;9.43;;;;;;;10.69;55.33;100013.47;1716829;81;20919;-64
2021/12/18 11:09:33;;;;;;;12.55;7.70;;;;;;;11.12;54.87;100000.80;1714735;81;21085;-74
2021/12/18 11:14:47;;;;;;;11.05;6.80;;;;;;;11.05;54.34;100008.58;1714918;81;21563;-73
2021/12/18 11:17:14;;;;;;;9.18;5.80;;;;;;;11.09;54.20;100011.61;1714248;81;21226;-67
2021/12/18 11:19:42;;;;;;;8.60;6.03;;;;;;;9.84;58.11;100012.95;1715245;81;21037;-64
2021/12/18 11:22:15;;;;;;;8.98;6.30;;;;;;;10.29;58.04;100012.33;1716069;81;21019;-64
2021/12/18 11:25:00;;;;;;;10.08;6.80;;;;;;;10.94;55.80;100010.41;1715738;81;21118;-69
2021/12/18 11:27:28;;;;;;;10.50;6.75;;;;;;;11.06;55.36;100006.30;1716661;81;21014;-66
2021/12/18 11:30:16;;;;;;;11.00;7.05;;;;;;;11.07;55.61;100011.81;1716377;81;21529;-64
2021/12/18 11:32:45;;;;;;;10.03;7.05;;;;;;;10.55;56.79;100008.34;1715875;81;21053;-64
2021/12/18 11:35:15;;;;;;;9.63;6.35;;;;;;;10.55;57.51;100006.53;1716044;81;21090;-64
2021/12/18 11:37:55;;;;;;;11.75;8.03;;;;;;;10.43;57.85;100008.85;1716730;81;22293;-65
2021/12/18 11:40:26;;;;;;;10.08;6.37;;;;;;;10.53;57.79;100007.23;1714339;81;20935;-69
2021/12/18 11:42:53;;;;;;;11.15;7.28;;;;;;;10.40;58.33;100005.31;1716702;81;21010;-64
2021/12/18 11:45:23;;;;;;;9.30;6.30;;;;;;;10.17;58.64;100005.98;1713605;81;21113;-64
2021/12/18 11:47:56;;;;;;;8.75;5.70;;;;;;;10.25;58.60;100009.79;1688443;81;21007;-65
2021/12/18 11:50:36;;;;;;;8.85;5.20;;;;;;;10.24;58.50;100005.55;1716482;82;21669;-71
2021/12/18 11:53:13;;;;;;;10.82;6.60;;;;;;;9.99;58.23;100011.11;1716337;81;20974;-65
2021/12/18 11:55:56;;;;;;;10.15;6.17;;;;;;;9.79;60.32;100014.52;1715834;81;21057;-65
2021/12/18 11:58:33;;;;;;;10.60;6.22;;;;;;;9.94;60.16;100013.97;1714118;81;21579;-67
2021/12/18 12:01:05;;;;;;;10.72;6.62;;;;;;;9.99;60.02;100017.63;1716089;81;21168;-64
2021/12/18 12:03:42;;;;;;;11.83;7.28;;;;;;;10.16;60.33;100020.81;1714847;81;20991;-68
2021/12/18 12:06:30;;;;;;;9.95;6.53;;;;;;;10.12;60.60;100026.58;1714377;81;21165;-65
2021/12/18 12:09:24;;;;;;;11.40;6.53;;;;;;;9.99;61.85;100022.83;1715798;81;21627;-68
2021/12/18 12:11:59;;;;;;;10.15;4.92;;;;;;;10.32;59.92;100022.38;1715754;81;21069;-63
2021/12/18 12:14:31;;;;;;;11.73;6.50;;;;;;;10.77;59.23;100024.75;1714345;81;21104;-72
2021/12/18 12:17:25;;;;;;;9.53;6.40;;;;;;;10.70;57.63;100026.00;1714828;81;21151;-72
2021/12/18 12:19:54;;;;;;;10.08;6.67;;;;;;;10.59;57.86;100023.91;1712446;81;21046;-65
2021/12/18 12:22:42;;;;;;;7.42;5.33;;;;;;;10.48;58.16;100027.83;1714473;81;21077;-65
2021/12/18 12:25:13;;;;;;;9.78;6.22;;;;;;;10.44;58.07;100033.11;1713014;81;21000;-68
2021/12/18 12:27:44;;;;;;;10.00;6.20;;;;;;;10.63;58.10;100032.96;1715196;81;21069;-66